createdAt,value
2023-04-05T00:00:37.783Z,-0.07
2023-04-05T00:01:37.724Z,-0.02
2023-04-05T00:02:38.680Z,-0.02
2023-04-05T00:03:37.720Z,-0.03
2023-04-05T00:04:37.751Z,-0.02
2023-04-05T00:05:37.634Z,-0.07
2023-04-05T00:06:37.625Z,-0.03
2023-04-05T00:07:37.639Z,0.03
2023-04-05T00:08:37.631Z,0.04
2023-04-05T00:09:37.619Z,0.08
2023-04-05T00:10:37.602Z,0.01
2023-04-05T00:11:37.588Z,0.03
2023-04-05T00:12:37.586Z,0.04
2023-04-05T00:13:37.560Z,0.10
2023-04-05T00:14:37.585Z,0.07
2023-04-05T00:15:37.572Z,0.11
2023-04-05T00:16:37.610Z,0.07
2023-04-05T00:17:37.588Z,0.04
2023-04-05T00:18:37.543Z,0.07
2023-04-05T00:19:37.517Z,0.12
2023-04-05T00:20:37.588Z,0.05
2023-04-05T00:21:37.501Z,0.04
2023-04-05T00:23:26.656Z,-0.08
2023-04-05T00:24:26.654Z,-0.06
2023-04-05T00:25:26.646Z,-0.13
2023-04-05T00:26:26.637Z,-0.13
2023-04-05T00:27:27.771Z,-0.11
2023-04-05T00:28:27.710Z,-0.20
2023-04-05T00:29:27.720Z,-0.18
2023-04-05T00:30:27.717Z,-0.21
2023-04-05T00:31:27.715Z,-0.23
2023-04-05T00:32:27.705Z,-0.20
2023-04-05T00:33:27.681Z,-0.29
2023-04-05T00:34:27.687Z,-0.25
2023-04-05T00:35:27.698Z,-0.26
2023-04-05T00:36:27.665Z,-0.25
2023-04-05T00:37:27.680Z,-0.23
2023-04-05T00:38:27.646Z,-0.28
2023-04-05T00:39:27.627Z,-0.32
2023-04-05T00:40:27.632Z,-0.35
2023-04-05T00:41:27.635Z,-0.38
2023-04-05T00:42:27.622Z,-0.44
2023-04-05T00:43:27.631Z,-0.43
2023-04-05T00:44:27.605Z,-0.36
2023-04-05T00:45:27.595Z,-0.41
2023-04-05T00:46:27.625Z,-0.52
2023-04-05T00:47:27.595Z,-0.44
2023-04-05T00:48:27.611Z,-0.47
2023-04-05T00:49:27.564Z,-0.52
2023-04-05T00:50:27.570Z,-0.54
2023-04-05T00:51:27.574Z,-0.53
2023-04-05T00:52:27.540Z,-0.50
2023-04-05T00:53:27.537Z,-0.52
2023-04-05T00:54:27.519Z,-0.50
2023-04-05T00:55:27.545Z,-0.53
2023-04-05T00:56:27.533Z,-0.56
2023-04-05T00:57:27.510Z,-0.61
2023-04-05T00:58:27.515Z,-0.67
2023-04-05T00:59:27.562Z,-0.53
2023-04-05T01:00:27.494Z,-0.61
2023-04-05T01:01:27.541Z,-0.56
2023-04-05T01:02:27.485Z,-0.54
2023-04-05T01:03:27.471Z,-0.50
2023-04-05T01:04:27.484Z,-0.62
2023-04-05T01:05:27.436Z,-0.54
2023-04-05T01:06:27.472Z,-0.62
2023-04-05T01:07:27.436Z,-0.65
2023-04-05T01:08:27.439Z,-0.70
2023-04-05T01:09:27.421Z,-0.64
2023-04-05T01:10:27.407Z,-0.64
2023-04-05T01:11:27.399Z,-0.68
2023-04-05T01:12:27.428Z,-0.62
2023-04-05T01:13:27.375Z,-0.67
2023-04-05T01:14:27.385Z,-0.65
2023-04-05T01:15:27.440Z,-0.59
2023-04-05T01:16:27.417Z,-0.57
2023-04-05T01:17:27.368Z,-0.59
2023-04-05T01:18:28.358Z,-0.67
2023-04-05T01:19:27.335Z,-0.65
2023-04-05T01:20:27.312Z,-0.65
2023-04-05T01:21:27.318Z,-0.70
2023-04-05T01:22:27.315Z,-0.70
2023-04-05T01:23:27.296Z,-0.70
2023-04-05T01:24:27.291Z,-0.78
2023-04-05T01:25:27.285Z,-0.74
2023-04-05T01:26:27.284Z,-0.74
2023-04-05T01:27:27.295Z,-0.74
2023-04-05T01:28:27.270Z,-0.72
2023-04-05T01:29:27.278Z,-0.74
2023-04-05T01:30:27.889Z,-0.75
2023-04-05T01:31:27.271Z,-0.74
2023-04-05T01:32:27.284Z,-0.68
2023-04-05T01:33:27.225Z,-0.77
2023-04-05T01:34:27.233Z,-0.75
2023-04-05T01:35:27.217Z,-0.85
2023-04-05T01:36:27.203Z,-0.71
2023-04-05T01:37:27.197Z,-0.86
2023-04-05T01:38:27.214Z,-0.89
2023-04-05T01:39:27.182Z,-0.96
2023-04-05T01:40:27.169Z,-0.94
2023-04-05T01:41:27.163Z,-0.82
2023-04-05T01:42:27.150Z,-0.96
2023-04-05T01:43:27.155Z,-0.91
2023-04-05T01:44:27.144Z,-0.94
2023-04-05T01:45:27.135Z,-0.83
2023-04-05T01:46:27.221Z,-0.86
2023-04-05T01:47:27.173Z,-0.89
2023-04-05T01:48:27.116Z,-0.91
2023-04-05T01:49:27.117Z,-0.75
2023-04-05T01:50:27.102Z,-0.83
2023-04-05T01:51:27.104Z,-0.97
2023-04-05T01:52:27.801Z,-0.90
2023-04-05T01:53:27.079Z,-0.94
2023-04-05T01:54:27.146Z,-0.96
2023-04-05T01:55:27.058Z,-0.96
2023-04-05T01:56:27.061Z,-1.08
2023-04-05T01:57:27.073Z,-1.01
2023-04-05T01:58:27.049Z,-1.02
2023-04-05T01:59:27.077Z,-1.11
2023-04-05T02:00:27.030Z,-1.04
2023-04-05T02:01:27.151Z,-1.04
2023-04-05T02:02:27.072Z,-1.09
2023-04-05T02:03:27.083Z,-1.15
2023-04-05T02:04:27.033Z,-1.27
2023-04-05T02:05:26.983Z,-1.14
2023-04-05T02:06:27.007Z,-1.22
2023-04-05T02:07:26.980Z,-1.22
2023-04-05T02:08:26.997Z,-1.17
2023-04-05T02:09:27.961Z,-1.22
2023-04-05T02:10:26.980Z,-1.22
2023-04-05T02:11:26.976Z,-1.27
2023-04-05T02:12:26.930Z,-1.23
2023-04-05T02:13:26.956Z,-1.17
2023-04-05T02:14:26.918Z,-1.19
2023-04-05T02:15:26.921Z,-1.14
2023-04-05T02:16:26.914Z,-1.23
2023-04-05T02:17:26.890Z,-1.22
2023-04-05T02:18:26.893Z,-1.27
2023-04-05T02:19:27.803Z,-1.22
2023-04-05T02:20:26.882Z,-1.27
2023-04-05T02:21:26.862Z,-1.17
2023-04-05T02:22:26.858Z,-1.25
2023-04-05T02:23:26.850Z,-1.27
2023-04-05T02:24:26.868Z,-1.30
2023-04-05T02:25:26.852Z,-1.38
2023-04-05T02:26:26.843Z,-1.43
2023-04-05T02:27:26.863Z,-1.37
2023-04-05T02:28:26.839Z,-1.40
2023-04-05T02:29:26.813Z,-1.46
2023-04-05T02:30:26.805Z,-1.64
2023-04-05T02:31:26.864Z,-1.64
2023-04-05T02:32:26.835Z,-1.64
2023-04-05T02:33:26.783Z,-1.59
2023-04-05T02:34:26.791Z,-1.66
2023-04-05T02:35:26.782Z,-1.68
2023-04-05T02:36:26.755Z,-1.64
2023-04-05T02:37:27.757Z,-1.68
2023-04-05T02:38:26.741Z,-1.66
2023-04-05T02:39:26.740Z,-1.72
2023-04-05T02:40:26.736Z,-1.72
2023-04-05T02:41:26.744Z,-1.71
2023-04-05T02:42:26.731Z,-1.59
2023-04-05T02:43:26.715Z,-1.59
2023-04-05T02:44:26.710Z,-1.58
2023-04-05T02:45:26.697Z,-1.58
2023-04-05T02:46:26.741Z,-1.53
2023-04-05T02:47:26.707Z,-1.66
2023-04-05T02:48:26.673Z,-1.56
2023-04-05T02:49:26.655Z,-1.66
2023-04-05T02:50:26.673Z,-1.58
2023-04-05T02:51:26.645Z,-1.74
2023-04-05T02:52:26.656Z,-1.62
2023-04-05T02:53:27.327Z,-1.65
2023-04-05T02:54:26.634Z,-1.77
2023-04-05T02:55:26.628Z,-1.76
2023-04-05T02:56:27.388Z,-1.79
2023-04-05T02:57:26.627Z,-1.71
2023-04-05T02:58:26.608Z,-1.76
2023-04-05T02:59:26.642Z,-1.74
2023-04-05T03:00:26.590Z,-1.76
2023-04-05T03:01:26.598Z,-1.84
2023-04-05T03:02:26.594Z,-1.72
2023-04-05T03:03:26.615Z,-1.68
2023-04-05T03:04:26.549Z,-1.66
2023-04-05T03:05:26.551Z,-1.65
2023-04-05T03:06:26.548Z,-1.66
2023-04-05T03:07:27.387Z,-1.71
2023-04-05T03:08:26.588Z,-1.72
2023-04-05T03:09:26.521Z,-1.76
2023-04-05T03:10:26.495Z,-1.76
2023-04-05T03:11:26.506Z,-1.77
2023-04-05T03:12:26.517Z,-1.86
2023-04-05T03:13:26.472Z,-1.77
2023-04-05T03:14:26.473Z,-1.80
2023-04-05T03:15:26.454Z,-1.77
2023-04-05T03:16:26.506Z,-1.87
2023-04-05T03:17:26.482Z,-2.01
2023-04-05T03:18:26.445Z,-1.90
2023-04-05T03:19:26.434Z,-2.05
2023-04-05T03:20:26.432Z,-2.04
2023-04-05T03:21:26.436Z,-2.07
2023-04-05T03:22:26.408Z,-1.98
2023-04-05T03:23:26.410Z,-2.07
2023-04-05T03:24:26.393Z,-1.98
2023-04-05T03:25:26.396Z,-1.89
2023-04-05T03:26:26.395Z,-1.94
2023-04-05T03:27:26.377Z,-1.90
2023-04-05T03:28:26.370Z,-1.90
2023-04-05T03:29:26.897Z,-1.97
2023-04-05T03:30:26.361Z,-2.01
2023-04-05T03:31:26.384Z,-2.04
2023-04-05T03:32:26.423Z,-1.95
2023-04-05T03:33:26.345Z,-2.04
2023-04-05T03:34:26.314Z,-2.01
2023-04-05T03:35:26.347Z,-1.97
2023-04-05T03:36:26.330Z,-2.00
2023-04-05T03:37:26.311Z,-2.00
2023-04-05T03:38:26.296Z,-2.02
2023-04-05T03:39:26.274Z,-2.02
2023-04-05T03:40:26.299Z,-2.07
2023-04-05T03:41:26.263Z,-2.10
2023-04-05T03:42:26.261Z,-2.05
2023-04-05T03:43:26.252Z,-2.12
2023-04-05T03:44:26.230Z,-2.02
2023-04-05T03:45:26.234Z,-2.18
2023-04-05T03:46:26.240Z,-2.10
2023-04-05T03:47:26.236Z,-2.19
2023-04-05T03:48:26.229Z,-2.13
2023-04-05T03:49:26.224Z,-2.23
2023-04-05T03:50:26.193Z,-2.21
2023-04-05T03:51:26.885Z,-2.05
2023-04-05T03:52:26.174Z,-2.19
2023-04-05T03:53:26.188Z,-2.21
2023-04-05T03:54:26.155Z,-2.19
2023-04-05T03:55:26.166Z,-2.21
2023-04-05T03:56:26.211Z,-2.23
2023-04-05T03:57:26.153Z,-2.15
2023-04-05T03:58:26.134Z,-2.28
2023-04-05T03:59:26.176Z,-2.23
2023-04-05T04:00:26.121Z,-2.34
2023-04-05T04:01:26.121Z,-2.26
2023-04-05T04:02:26.201Z,-2.32
2023-04-05T04:03:26.161Z,-2.38
2023-04-05T04:04:26.094Z,-2.42
2023-04-05T04:05:26.136Z,-2.38
2023-04-05T04:06:26.139Z,-2.45
2023-04-05T04:07:26.070Z,-2.52
2023-04-05T04:08:26.070Z,-2.42
2023-04-05T04:09:26.058Z,-2.45
2023-04-05T04:10:26.811Z,-2.42
2023-04-05T04:11:26.065Z,-2.37
2023-04-05T04:12:26.038Z,-2.44
2023-04-05T04:13:26.019Z,-2.44
2023-04-05T04:14:26.016Z,-2.42
2023-04-05T04:15:26.003Z,-2.50
2023-04-05T04:16:27.467Z,-2.45
2023-04-05T04:17:27.034Z,-2.41
2023-04-05T04:18:26.176Z,-2.44
2023-04-05T04:19:25.957Z,-2.41
2023-04-05T04:20:25.978Z,-2.28
2023-04-05T04:21:25.949Z,-2.42
2023-04-05T04:22:25.945Z,-2.32
2023-04-05T04:23:25.940Z,-2.45
2023-04-05T04:24:25.938Z,-2.40
2023-04-05T04:25:26.812Z,-2.41
2023-04-05T04:26:25.925Z,-2.47
2023-04-05T04:27:25.911Z,-2.42
2023-04-05T04:28:25.885Z,-2.50
2023-04-05T04:29:25.910Z,-2.45
2023-04-05T04:30:25.877Z,-2.45
2023-04-05T04:31:25.930Z,-2.37
2023-04-05T04:32:25.891Z,-2.45
2023-04-05T04:33:25.862Z,-2.47
2023-04-05T04:34:25.950Z,-2.44
2023-04-05T04:35:25.883Z,-2.45
2023-04-05T04:36:25.852Z,-2.42
2023-04-05T04:37:25.821Z,-2.42
2023-04-05T04:38:25.846Z,-2.44
2023-04-05T04:39:25.813Z,-2.38
2023-04-05T04:40:25.808Z,-2.42
2023-04-05T04:41:25.811Z,-2.41
2023-04-05T04:42:25.817Z,-2.32
2023-04-05T04:43:25.778Z,-2.47
2023-04-05T04:44:25.791Z,-2.41
2023-04-05T04:45:25.785Z,-2.37
2023-04-05T04:46:25.774Z,-2.40
2023-04-05T04:47:25.767Z,-2.52
2023-04-05T04:48:25.750Z,-2.40
2023-04-05T04:49:25.764Z,-2.45
2023-04-05T04:50:26.391Z,-2.38
2023-04-05T04:51:25.725Z,-2.45
2023-04-05T04:52:25.712Z,-2.45
2023-04-05T04:53:25.721Z,-2.45
2023-04-05T04:54:25.719Z,-2.34
2023-04-05T04:55:25.702Z,-2.34
2023-04-05T04:56:25.684Z,-2.26
2023-04-05T04:57:25.681Z,-2.21
2023-04-05T04:58:25.665Z,-2.23
2023-04-05T04:59:25.702Z,-2.23
2023-04-05T05:00:25.672Z,-2.21
2023-04-05T05:01:25.689Z,-2.16
2023-04-05T05:02:25.653Z,-2.23
2023-04-05T05:03:25.631Z,-2.18
2023-04-05T05:04:25.675Z,-2.26
2023-04-05T05:05:25.626Z,-2.22
2023-04-05T05:06:26.338Z,-2.22
2023-04-05T05:07:25.616Z,-2.22
2023-04-05T05:08:25.604Z,-2.13
2023-04-05T05:09:25.592Z,-2.08
2023-04-05T05:10:25.612Z,-2.13
2023-04-05T05:11:25.575Z,-2.05
2023-04-05T05:12:25.555Z,-1.80
2023-04-05T05:13:25.562Z,-1.51
2023-04-05T05:14:25.551Z,-1.35
2023-04-05T05:15:26.550Z,-1.09
2023-04-05T05:16:25.608Z,-0.96
2023-04-05T05:17:27.344Z,-0.77
2023-04-05T05:18:25.529Z,-0.68
2023-04-05T05:19:25.505Z,-0.46
2023-04-05T05:20:25.498Z,-0.25
2023-04-05T05:21:25.481Z,-0.03
2023-04-05T05:22:26.539Z,0.28
2023-04-05T05:23:25.500Z,0.39
2023-04-05T05:24:25.505Z,0.65
2023-04-05T05:25:25.472Z,0.70
2023-04-05T05:26:25.462Z,1.01
2023-04-05T05:27:25.453Z,1.26
2023-04-05T05:28:25.447Z,1.50
2023-04-05T05:29:25.434Z,1.60
2023-04-05T05:30:25.456Z,1.63
2023-04-05T05:31:25.470Z,1.81
2023-04-05T05:32:25.451Z,1.76
2023-04-05T05:33:25.430Z,1.94
2023-04-05T05:34:25.418Z,2.06
2023-04-05T05:35:25.414Z,2.20
2023-04-05T05:36:25.383Z,2.25
2023-04-05T05:37:25.378Z,2.32
2023-04-05T05:38:25.394Z,2.49
2023-04-05T05:39:25.383Z,2.46
2023-04-05T05:40:25.354Z,2.68
2023-04-05T05:41:25.372Z,2.93
2023-04-05T05:42:25.327Z,3.32
2023-04-05T05:43:25.336Z,3.73
2023-04-05T05:44:25.322Z,4.12
2023-04-05T05:45:25.326Z,4.16
2023-04-05T05:46:25.360Z,4.34
2023-04-05T05:47:25.322Z,4.89
2023-04-05T05:48:25.290Z,5.08
2023-04-05T05:49:25.283Z,5.11
2023-04-05T05:50:25.280Z,5.23
2023-04-05T05:51:25.258Z,5.36
2023-04-05T05:52:25.418Z,5.33
2023-04-05T05:53:25.237Z,5.30
2023-04-05T05:54:25.254Z,5.82
2023-04-05T05:55:25.919Z,6.44
2023-04-05T05:56:25.246Z,7.10
2023-04-05T05:57:25.216Z,7.75
2023-04-05T05:58:25.218Z,8.03
2023-04-05T05:59:25.224Z,8.42
2023-04-05T06:00:25.176Z,8.89
2023-04-05T06:01:26.184Z,8.76
2023-04-05T06:02:25.208Z,8.53
2023-04-05T06:03:25.287Z,8.60
2023-04-05T06:04:25.334Z,8.87
2023-04-05T06:05:25.160Z,8.85
2023-04-05T06:06:25.830Z,8.94
2023-04-05T06:07:25.134Z,8.67
2023-04-05T06:08:25.166Z,8.49
2023-04-05T06:09:25.132Z,8.03
2023-04-05T06:10:25.127Z,7.98
2023-04-05T06:11:25.102Z,8.19
2023-04-05T06:12:26.037Z,8.70
2023-04-05T06:13:25.095Z,9.25
2023-04-05T06:14:25.314Z,9.87
2023-04-05T06:15:25.076Z,10.22
2023-04-05T06:16:25.161Z,10.20
2023-04-05T06:17:25.056Z,10.13
2023-04-05T06:18:25.067Z,9.94
2023-04-05T06:19:25.053Z,9.66
2023-04-05T06:20:25.484Z,9.58
2023-04-05T06:21:25.048Z,9.95
2023-04-05T06:22:25.058Z,10.04
2023-04-05T06:23:25.030Z,10.38
2023-04-05T06:24:25.034Z,10.60
2023-04-05T06:25:24.995Z,10.60
2023-04-05T06:26:25.010Z,10.89
2023-04-05T06:27:25.002Z,11.10
2023-04-05T06:28:25.004Z,11.27
2023-04-05T06:29:24.996Z,11.44
2023-04-05T06:30:24.964Z,11.66
2023-04-05T06:31:24.939Z,11.68
2023-04-05T06:32:24.930Z,12.00
2023-04-05T06:33:24.928Z,12.27
2023-04-05T06:34:25.949Z,12.36
2023-04-05T06:35:24.926Z,12.50
2023-04-05T06:36:27.313Z,12.29
2023-04-05T06:37:24.919Z,12.40
2023-04-05T06:38:25.426Z,12.17
2023-04-05T06:39:24.903Z,12.36
2023-04-05T06:40:24.870Z,12.40
2023-04-05T06:41:24.868Z,12.57
2023-04-05T06:42:26.436Z,12.82
2023-04-05T06:43:25.426Z,12.85
2023-04-05T06:44:25.428Z,12.90
2023-04-05T06:45:24.859Z,12.95
2023-04-05T06:46:24.969Z,13.03
2023-04-05T06:47:24.826Z,13.18
2023-04-05T06:48:24.839Z,13.31
2023-04-05T06:49:24.831Z,13.30
2023-04-05T06:50:24.858Z,13.53
2023-04-05T06:51:24.787Z,13.46
2023-04-05T06:52:24.830Z,13.13
2023-04-05T06:53:24.798Z,12.83
2023-04-05T06:54:24.765Z,12.64
2023-04-05T06:55:24.790Z,12.37
2023-04-05T06:56:25.366Z,12.36
2023-04-05T06:57:24.741Z,12.45
2023-04-05T06:58:25.603Z,12.36
2023-04-05T06:59:25.391Z,12.50
2023-04-05T07:00:25.354Z,12.82
2023-04-05T07:01:24.811Z,13.12
2023-04-05T07:02:24.724Z,13.19
2023-04-05T07:03:25.849Z,13.00
2023-04-05T07:04:24.767Z,13.11
2023-04-05T07:05:25.418Z,13.33
2023-04-05T07:06:26.423Z,13.56
2023-04-05T07:07:24.660Z,13.70
2023-04-05T07:08:24.646Z,13.44
2023-04-05T07:09:24.647Z,13.08
2023-04-05T07:10:24.972Z,12.49
2023-04-05T07:11:24.659Z,12.24
2023-04-05T07:12:24.606Z,11.97
2023-04-05T07:13:24.655Z,11.48
2023-04-05T07:14:24.618Z,11.30
2023-04-05T07:15:24.610Z,10.97
2023-04-05T07:16:24.659Z,10.87
2023-04-05T07:17:24.633Z,10.53
2023-04-05T07:18:25.581Z,10.38
2023-04-05T07:19:24.573Z,10.44
2023-04-05T07:20:24.581Z,10.60
2023-04-05T07:21:24.583Z,10.84
2023-04-05T07:22:24.525Z,10.63
2023-04-05T07:23:24.520Z,10.57
2023-04-05T07:24:24.526Z,10.79
2023-04-05T07:25:24.539Z,10.92
2023-04-05T07:26:24.514Z,11.02
2023-04-05T07:27:24.491Z,10.72
2023-04-05T07:28:24.491Z,10.40
2023-04-05T07:29:24.489Z,9.97
2023-04-05T07:30:24.490Z,9.66
2023-04-05T07:31:24.467Z,9.32
2023-04-05T07:32:24.606Z,9.25
2023-04-05T07:33:24.450Z,9.22
2023-04-05T07:34:24.466Z,9.03
2023-04-05T07:35:24.460Z,8.89
2023-04-05T07:36:24.435Z,8.71
2023-04-05T07:37:24.426Z,8.56
2023-04-05T07:38:24.407Z,8.16
2023-04-05T07:39:24.406Z,8.01
2023-04-05T07:40:24.397Z,7.76
2023-04-05T07:41:24.383Z,7.76
2023-04-05T07:42:24.382Z,7.77
2023-04-05T07:43:24.368Z,7.90
2023-04-05T07:44:24.403Z,8.00
2023-04-05T07:45:24.350Z,7.77
2023-04-05T07:46:24.423Z,7.67
2023-04-05T07:47:24.480Z,7.53
2023-04-05T07:48:24.391Z,7.50
2023-04-05T07:49:25.357Z,7.47
2023-04-05T07:50:24.321Z,7.21
2023-04-05T07:51:24.310Z,7.05
2023-04-05T07:52:24.290Z,7.10
2023-04-05T07:53:24.309Z,6.93
2023-04-05T07:54:24.280Z,7.02
2023-04-05T07:55:24.294Z,7.02
2023-04-05T07:56:24.306Z,6.89
2023-04-05T07:57:24.323Z,7.00
2023-04-05T07:58:24.252Z,7.18
2023-04-05T07:59:24.347Z,7.33
2023-04-05T08:00:24.256Z,7.36
2023-04-05T08:01:24.222Z,7.24
2023-04-05T08:02:24.227Z,7.24
2023-04-05T08:03:24.301Z,7.47
2023-04-05T08:04:24.203Z,7.53
2023-04-05T08:05:24.366Z,7.57
2023-04-05T08:06:24.194Z,7.56
2023-04-05T08:07:24.179Z,7.51
2023-04-05T08:08:24.172Z,7.60
2023-04-05T08:09:24.170Z,7.60
2023-04-05T08:10:24.164Z,7.73
2023-04-05T08:11:24.150Z,7.83
2023-04-05T08:12:24.149Z,7.83
2023-04-05T08:13:24.121Z,7.95
2023-04-05T08:14:24.132Z,7.97
2023-04-05T08:15:24.117Z,8.05
2023-04-05T08:16:24.200Z,8.26
2023-04-05T08:17:24.102Z,8.44
2023-04-05T08:18:24.108Z,8.63
2023-04-05T08:19:24.970Z,8.82
2023-04-05T08:20:24.089Z,8.92
2023-04-05T08:21:24.080Z,8.95
2023-04-05T08:22:24.080Z,8.66
2023-04-05T08:23:24.063Z,8.53
2023-04-05T08:24:24.083Z,8.76
2023-04-05T08:25:24.038Z,9.00
2023-04-05T08:26:24.058Z,9.03
2023-04-05T08:27:24.017Z,9.02
2023-04-05T08:28:24.002Z,9.19
2023-04-05T08:29:24.025Z,9.26
2023-04-05T08:30:23.991Z,9.43
2023-04-05T08:31:24.025Z,9.41
2023-04-05T08:32:23.976Z,9.34
2023-04-05T08:33:23.960Z,9.21
2023-04-05T08:34:23.965Z,9.25
2023-04-05T08:35:23.964Z,9.16
2023-04-05T08:36:23.966Z,9.03
2023-04-05T08:37:23.942Z,8.85
2023-04-05T08:38:23.910Z,8.63
2023-04-05T08:39:23.926Z,8.48
2023-04-05T08:40:23.898Z,8.05
2023-04-05T08:41:23.937Z,7.79
2023-04-05T08:42:23.889Z,7.56
2023-04-05T08:43:23.884Z,7.48
2023-04-05T08:44:23.879Z,7.56
2023-04-05T08:45:23.878Z,7.51
2023-04-05T08:46:23.997Z,7.29
2023-04-05T08:47:23.934Z,7.21
2023-04-05T08:48:23.843Z,7.07
2023-04-05T08:49:23.919Z,7.24
2023-04-05T08:50:23.847Z,7.39
2023-04-05T08:51:23.848Z,7.33
2023-04-05T08:52:23.864Z,7.40
2023-04-05T08:53:23.808Z,7.39
2023-04-05T08:54:23.845Z,7.43
2023-04-05T08:55:23.806Z,7.45
2023-04-05T08:56:23.810Z,7.48
2023-04-05T08:57:23.798Z,7.50
2023-04-05T08:58:23.826Z,7.51
2023-04-05T08:59:23.815Z,7.47
2023-04-05T09:00:23.773Z,7.29
2023-04-05T09:01:23.759Z,7.36
2023-04-05T09:02:23.764Z,7.31
2023-04-05T09:03:23.847Z,7.28
2023-04-05T09:04:23.727Z,7.33
2023-04-05T09:05:23.726Z,7.29
2023-04-05T09:06:23.723Z,7.35
2023-04-05T09:07:23.694Z,7.24
2023-04-05T09:08:23.779Z,6.78
2023-04-05T09:09:23.676Z,6.72
2023-04-05T09:10:23.675Z,6.39
2023-04-05T09:11:23.690Z,6.28
2023-04-05T09:12:23.662Z,6.22
2023-04-05T09:13:23.652Z,6.30
2023-04-05T09:14:23.657Z,6.38
2023-04-05T09:15:24.515Z,6.27
2023-04-05T09:16:23.695Z,6.16
2023-04-05T09:17:23.614Z,6.11
2023-04-05T09:18:27.051Z,6.19
2023-04-05T09:19:24.615Z,6.14
2023-04-05T09:20:23.603Z,6.09
2023-04-05T09:21:23.596Z,6.01
2023-04-05T09:22:24.480Z,5.94
2023-04-05T09:23:23.581Z,6.04
2023-04-05T09:24:23.571Z,5.94
2023-04-05T09:25:23.570Z,6.01
2023-04-05T09:26:23.547Z,6.14
2023-04-05T09:27:23.535Z,6.11
2023-04-05T09:28:23.680Z,6.09
2023-04-05T09:29:23.517Z,6.16
2023-04-05T09:30:23.559Z,6.24
2023-04-05T09:31:23.588Z,6.20
2023-04-05T09:32:23.512Z,6.36
2023-04-05T09:33:23.492Z,6.17
2023-04-05T09:34:23.489Z,6.20
2023-04-05T09:35:23.479Z,6.24
2023-04-05T09:36:23.482Z,6.24
2023-04-05T09:37:24.389Z,6.33
2023-04-05T09:38:23.463Z,6.44
2023-04-05T09:39:23.992Z,6.44
2023-04-05T09:40:23.436Z,6.48
2023-04-05T09:42:30.280Z,6.49
2023-04-05T09:43:31.387Z,6.52
2023-04-05T09:44:31.375Z,6.49
2023-04-05T09:45:31.353Z,6.57
2023-04-05T09:46:31.405Z,6.54
2023-04-05T09:47:31.544Z,6.63
2023-04-05T09:48:31.348Z,6.59
2023-04-05T09:49:31.345Z,6.66
2023-04-05T09:50:31.306Z,6.63
2023-04-05T09:51:31.313Z,6.70
2023-04-05T09:52:31.309Z,6.72
2023-04-05T09:53:31.305Z,6.69
2023-04-05T09:54:31.314Z,6.57
2023-04-05T09:55:31.284Z,6.62
2023-04-05T09:56:31.263Z,6.56
2023-04-05T09:57:31.243Z,6.51
2023-04-05T09:58:31.239Z,6.38
2023-04-05T09:59:31.355Z,6.27
2023-04-05T10:00:32.229Z,6.22
2023-04-05T10:01:32.171Z,6.33
2023-04-05T10:02:31.253Z,6.39
2023-04-05T10:03:31.243Z,6.45
2023-04-05T10:04:32.193Z,6.41
2023-04-05T10:05:31.183Z,6.48
2023-04-05T10:06:31.189Z,6.51
2023-04-05T10:07:31.167Z,6.62
2023-04-05T10:08:32.821Z,6.63
2023-04-05T10:09:31.299Z,6.70
2023-04-05T10:10:31.166Z,6.67
2023-04-05T10:11:31.142Z,6.62
2023-04-05T10:12:31.124Z,6.66
2023-04-05T10:13:31.134Z,6.70
2023-04-05T10:14:31.230Z,6.70
2023-04-05T10:15:31.090Z,6.54
2023-04-05T10:16:31.128Z,6.46
2023-04-05T10:17:31.108Z,6.52
2023-04-05T10:18:31.077Z,6.64
2023-04-05T10:19:31.082Z,6.70
2023-04-05T10:20:31.053Z,6.85
2023-04-05T10:21:31.063Z,6.74
2023-04-05T10:22:31.061Z,6.63
2023-04-05T10:23:31.051Z,6.63
2023-04-05T10:24:31.023Z,6.54
2023-04-05T10:25:31.038Z,6.45
2023-04-05T10:26:31.011Z,6.56
2023-04-05T10:27:31.008Z,6.49
2023-04-05T10:28:31.476Z,6.45
2023-04-05T10:29:31.055Z,6.48
2023-04-05T10:30:31.005Z,6.49
2023-04-05T10:31:37.787Z,6.66
2023-04-05T10:32:33.068Z,6.62
2023-04-05T10:33:30.951Z,6.66
2023-04-05T10:34:32.160Z,6.74
2023-04-05T10:35:30.933Z,6.79
2023-04-05T10:36:30.951Z,6.92
2023-04-05T10:37:30.954Z,7.00
2023-04-05T10:38:30.905Z,7.10
2023-04-05T10:39:30.904Z,7.31
2023-04-05T10:40:30.916Z,7.38
2023-04-05T10:41:30.924Z,7.14
2023-04-05T10:42:30.878Z,7.23
2023-04-05T10:43:31.658Z,7.10
2023-04-05T10:44:30.868Z,7.10
2023-04-05T10:45:31.710Z,7.17
2023-04-05T10:46:30.895Z,7.17
2023-04-05T10:47:31.722Z,7.07
2023-04-05T10:48:30.823Z,7.13
2023-04-05T10:49:30.876Z,7.14
2023-04-05T10:50:30.805Z,7.17
2023-04-05T10:51:30.827Z,7.20
2023-04-05T10:52:30.876Z,7.14
2023-04-05T10:53:30.823Z,7.17
2023-04-05T10:54:30.804Z,7.11
2023-04-05T10:55:30.842Z,7.14
2023-04-05T10:56:30.775Z,7.29
2023-04-05T10:57:30.844Z,7.36
2023-04-05T10:58:31.278Z,7.39
2023-04-05T10:59:30.770Z,7.28
2023-04-05T11:00:30.768Z,7.40
2023-04-05T11:01:31.726Z,7.32
2023-04-05T11:02:30.760Z,7.38
2023-04-05T11:03:30.875Z,7.31
2023-04-05T11:04:30.763Z,7.36
2023-04-05T11:05:30.768Z,7.39
2023-04-05T11:06:30.669Z,7.40
2023-04-05T11:07:30.679Z,7.51
2023-04-05T11:08:30.657Z,7.47
2023-04-05T11:09:30.657Z,7.40
2023-04-05T11:10:30.665Z,7.29
2023-04-05T11:11:30.644Z,7.28
2023-04-05T11:12:30.632Z,7.40
2023-04-05T11:13:30.642Z,7.36
2023-04-05T11:14:30.617Z,7.50
2023-04-05T11:15:30.732Z,7.69
2023-04-05T11:16:30.636Z,7.80
2023-04-05T11:17:30.602Z,7.80
2023-04-05T11:18:30.597Z,7.87
2023-04-05T11:19:30.582Z,7.87
2023-04-05T11:20:30.579Z,7.95
2023-04-05T11:21:30.568Z,7.97
2023-04-05T11:22:30.564Z,8.15
2023-04-05T11:23:30.564Z,8.15
2023-04-05T11:24:30.762Z,8.30
2023-04-05T11:25:30.535Z,8.51
2023-04-05T11:26:30.515Z,8.67
2023-04-05T11:27:30.522Z,8.63
2023-04-05T11:28:30.547Z,8.64
2023-04-05T11:29:30.496Z,8.69
2023-04-05T11:30:30.490Z,8.74
2023-04-05T11:31:30.529Z,8.74
2023-04-05T11:32:30.516Z,8.88
2023-04-05T11:33:30.502Z,8.67
2023-04-05T11:34:30.497Z,8.74
2023-04-05T11:35:30.465Z,8.74
2023-04-05T11:36:30.494Z,8.76
2023-04-05T11:37:30.418Z,8.73
2023-04-05T11:38:30.425Z,8.82
2023-04-05T11:39:30.428Z,8.71
2023-04-05T11:40:30.403Z,8.66
2023-04-05T11:41:30.403Z,8.52
2023-04-05T11:42:30.378Z,8.55
2023-04-05T11:43:30.421Z,8.48
2023-04-05T11:44:30.381Z,8.46
2023-04-05T11:45:32.043Z,8.45
2023-04-05T11:46:31.476Z,8.52
2023-04-05T11:47:30.410Z,8.44
2023-04-05T11:48:31.340Z,8.45
2023-04-05T11:49:30.331Z,8.49
2023-04-05T11:50:30.341Z,8.55
2023-04-05T11:51:31.247Z,8.48
2023-04-05T11:52:30.316Z,8.53
2023-04-05T11:53:30.314Z,8.52
2023-04-05T11:54:30.320Z,8.56
2023-04-05T11:55:30.297Z,8.56
2023-04-05T11:56:30.368Z,8.64
2023-04-05T11:57:30.279Z,8.69
2023-04-05T11:58:30.251Z,8.70
2023-04-05T11:59:30.357Z,8.81
2023-04-05T12:00:31.239Z,8.88
2023-04-05T12:01:31.291Z,8.91
2023-04-05T12:02:30.258Z,8.88
2023-04-05T12:03:30.332Z,8.85
2023-04-05T12:04:30.287Z,8.76
2023-04-05T12:05:30.196Z,8.73
2023-04-05T12:06:32.152Z,8.78
2023-04-05T12:07:31.183Z,8.63
2023-04-05T12:08:30.671Z,8.55
2023-04-05T12:09:30.179Z,8.64
2023-04-05T12:10:30.177Z,8.49
2023-04-05T12:11:30.159Z,8.49
2023-04-05T12:12:30.138Z,8.41
2023-04-05T12:13:30.133Z,8.46
2023-04-05T12:14:30.146Z,8.51
2023-04-05T12:15:30.111Z,8.45
2023-04-05T12:16:30.208Z,8.64
2023-04-05T12:17:30.167Z,8.63
2023-04-05T12:18:30.093Z,8.60
2023-04-05T12:19:30.675Z,8.52
2023-04-05T12:20:30.089Z,8.61
2023-04-05T12:21:30.084Z,8.51
2023-04-05T12:23:36.333Z,8.61
2023-04-05T12:24:36.352Z,8.64
2023-04-05T12:25:37.441Z,8.67
2023-04-05T12:26:37.452Z,8.66
2023-04-05T12:27:37.405Z,8.69
2023-04-05T12:28:37.410Z,8.88
2023-04-05T12:29:37.413Z,8.87
2023-04-05T12:30:37.392Z,8.95
2023-04-05T12:31:39.355Z,8.99
2023-04-05T12:32:37.451Z,9.10
2023-04-05T12:33:37.367Z,9.00
2023-04-05T12:34:37.367Z,8.91
2023-04-05T12:35:37.345Z,8.94
2023-04-05T12:36:37.329Z,8.99
2023-04-05T12:37:37.331Z,9.03
2023-04-05T12:38:38.336Z,9.11
2023-04-05T12:39:37.318Z,9.08
2023-04-05T12:40:37.321Z,9.11
2023-04-05T12:41:37.352Z,9.16
2023-04-05T12:42:37.305Z,9.23
2023-04-05T12:43:37.280Z,9.26
2023-04-05T12:44:37.286Z,9.23
2023-04-05T12:45:37.318Z,9.36
2023-04-05T12:46:38.343Z,9.32
2023-04-05T12:47:37.301Z,9.32
2023-04-05T12:48:37.245Z,9.29
2023-04-05T12:49:37.232Z,9.26
2023-04-05T12:50:37.220Z,9.16
2023-04-05T12:51:37.215Z,9.03
2023-04-05T12:52:39.247Z,8.99
2023-04-05T12:53:37.200Z,8.95
2023-04-05T12:54:38.207Z,8.85
2023-04-05T12:55:37.219Z,8.70
2023-04-05T12:56:37.225Z,8.64
2023-04-05T12:57:37.179Z,8.64
2023-04-05T12:58:37.198Z,8.55
2023-04-05T12:59:37.201Z,8.55
2023-04-05T13:00:37.146Z,8.58
2023-04-05T13:01:37.210Z,8.61
2023-04-05T13:02:37.184Z,8.69
2023-04-05T13:03:37.189Z,8.78
2023-04-05T13:04:37.146Z,8.92
2023-04-05T13:05:37.119Z,8.89
2023-04-05T13:06:37.100Z,8.82
2023-04-05T13:07:37.093Z,8.85
2023-04-05T13:08:37.096Z,8.82